Time;durP1;ratioP1;P1;durP2;ratioP2;P2;SDS_P1;SDS_P2;PMS_P1;PMS_P2;Temp;Humidity;BMP_temperature;BMP_pressure;BME280_temperature;BME280_humidity;BME280_pressure;Samples;Min_cycle;Max_cycle;Signal;HPM_P1;HPM_P2
2021/01/17 00:01:14;;;;;;;44.58;40.05;;;26.30;81.90;;;;;;4965317;28;20236;-51
2021/01/17 00:03:45;;;;;;;48.08;43.50;;;26.30;81.90;;;;;;4967230;28;20239;-54
2021/01/17 00:06:15;;;;;;;43.45;39.38;;;26.30;82.00;;;;;;4977941;28;20669;-54
2021/01/17 00:08:47;;;;;;;46.92;42.45;;;26.30;82.00;;;;;;4960135;28;20233;-51
2021/01/17 00:11:18;;;;;;;42.05;38.13;;;26.30;82.10;;;;;;4956761;28;20225;-51
2021/01/17 00:13:48;;;;;;;43.83;39.58;;;26.30;82.10;;;;;;4966226;28;20287;-55
2021/01/17 00:16:19;;;;;;;44.70;40.45;;;26.30;82.30;;;;;;4957003;28;20639;-56
2021/01/17 00:18:50;;;;;;;46.65;42.33;;;26.30;82.40;;;;;;4963151;28;20704;-51
2021/01/17 00:21:20;;;;;;;44.92;40.33;;;26.30;82.50;;;;;;4952797;28;20261;-52
2021/01/17 00:23:52;;;;;;;50.17;45.38;;;26.30;82.60;;;;;;4977444;28;20664;-57
2021/01/17 00:26:23;;;;;;;49.95;45.03;;;26.30;82.70;;;;;;4955835;28;20233;-55
2021/01/17 00:28:53;;;;;;;46.97;42.25;;;26.40;82.80;;;;;;4964686;28;20237;-53
2021/01/17 00:31:23;;;;;;;46.03;41.65;;;26.40;82.90;;;;;;4956992;28;20320;-53
2021/01/17 00:33:55;;;;;;;44.90;40.92;;;26.40;83.00;;;;;;4963708;28;20700;-49
2021/01/17 00:36:25;;;;;;;48.72;43.88;;;26.40;83.10;;;;;;4968979;28;20263;-55
2021/01/17 00:38:57;;;;;;;49.00;44.42;;;26.50;83.40;;;;;;4958494;28;20644;-54
2021/01/17 00:41:31;;;;;;;48.42;43.47;;;26.50;83.70;;;;;;4959745;28;20247;-50
2021/01/17 00:44:02;;;;;;;51.55;46.85;;;26.50;84.20;;;;;;4977737;28;20710;-50
2021/01/17 00:46:40;;;;;;;52.47;47.67;;;26.60;84.10;;;;;;4963656;28;20331;-57
2021/01/17 00:49:12;;;;;;;53.03;47.58;;;26.60;84.60;;;;;;4959682;28;20236;-52
2021/01/17 00:51:44;;;;;;;54.70;49.30;;;26.60;84.40;;;;;;4960898;28;20274;-55
2021/01/17 00:54:17;;;;;;;52.30;47.25;;;26.70;84.70;;;;;;4965669;28;20241;-56
2021/01/17 00:56:47;;;;;;;49.13;44.28;;;26.70;85.20;;;;;;4962930;28;20216;-56
2021/01/17 00:59:18;;;;;;;49.88;45.22;;;26.80;85.30;;;;;;4963349;28;20228;-53
2021/01/17 01:01:49;;;;;;;51.60;46.42;;;26.80;85.60;;;;;;4966727;28;20228;-56
2021/01/17 01:04:20;;;;;;;53.78;48.70;;;26.90;85.80;;;;;;4957455;28;20256;-54
2021/01/17 01:06:52;;;;;;;51.67;46.75;;;27.00;86.00;;;;;;4963010;28;20239;-55
2021/01/17 01:09:24;;;;;;;49.25;44.53;;;27.00;86.20;;;;;;4956484;28;20601;-54
2021/01/17 01:11:54;;;;;;;44.67;40.65;;;27.10;86.40;;;;;;4961765;28;20576;-53
2021/01/17 01:14:24;;;;;;;47.08;42.55;;;27.10;86.20;;;;;;4962625;28;20237;-51
2021/01/17 01:16:55;;;;;;;42.45;38.60;;;27.20;86.40;;;;;;4957481;28;20262;-52
2021/01/17 01:19:26;;;;;;;44.40;40.40;;;27.30;86.50;;;;;;4966073;28;20583;-51
2021/01/17 01:21:56;;;;;;;40.50;36.70;;;27.30;86.50;;;;;;4961912;28;20316;-51
2021/01/17 01:24:28;;;;;;;38.10;34.70;;;27.40;86.50;;;;;;4958683;28;20234;-51
2021/01/17 01:26:58;;;;;;;37.88;34.50;;;27.50;86.70;;;;;;4964106;28;20232;-51
2021/01/17 01:29:29;;;;;;;36.00;32.50;;;27.50;86.70;;;;;;4970058;28;20237;-54
2021/01/17 01:31:59;;;;;;;36.78;33.38;;;27.60;86.60;;;;;;4967670;28;20239;-56
2021/01/17 01:34:30;;;;;;;37.90;34.50;;;27.80;86.60;;;;;;4961818;28;20233;-56
2021/01/17 01:37:00;;;;;;;39.40;35.72;;;27.80;86.40;;;;;;4965653;28;20240;-54
2021/01/17 01:39:32;;;;;;;39.35;35.60;;;27.90;86.40;;;;;;4958408;28;20232;-52
2021/01/17 01:42:06;;;;;;;39.58;35.90;;;28.00;86.30;;;;;;4965125;28;20236;-55
2021/01/17 01:44:36;;;;;;;39.47;35.75;;;28.00;86.10;;;;;;4964842;28;20232;-54
2021/01/17 01:47:07;;;;;;;39.40;35.97;;;28.10;86.00;;;;;;4963895;28;20241;-55
2021/01/17 01:49:38;;;;;;;41.15;37.08;;;28.20;86.00;;;;;;4966714;28;20225;-53
2021/01/17 01:52:09;;;;;;;38.97;35.50;;;28.30;85.80;;;;;;4975603;28;20240;-54
2021/01/17 01:54:41;;;;;;;42.08;38.28;;;28.30;85.60;;;;;;4975938;28;20749;-56
2021/01/17 01:57:12;;;;;;;41.15;37.28;;;28.40;85.70;;;;;;4966490;28;20230;-57
2021/01/17 01:59:42;;;;;;;36.90;33.40;;;28.50;85.50;;;;;;4960845;28;20245;-53
2021/01/17 02:02:13;;;;;;;34.13;30.83;;;28.60;85.50;;;;;;4963732;28;20231;-57
2021/01/17 02:04:43;;;;;;;30.95;28.15;;;28.60;85.20;;;;;;4969982;28;20662;-56
2021/01/17 02:07:51;;;;;;;30.38;27.50;;;28.70;84.90;;;;;;4969110;28;20229;-51
2021/01/17 02:10:24;;;;;;;27.38;24.75;;;28.80;84.40;;;;;;4969477;28;20298;-55
2021/01/17 02:12:58;;;;;;;27.75;25.33;;;28.90;84.40;;;;;;4969484;28;20239;-57
2021/01/17 02:15:31;;;;;;;30.00;27.20;;;28.90;83.80;;;;;;4995710;28;20666;-57
2021/01/17 02:18:02;;;;;;;30.20;27.55;;;29.00;83.40;;;;;;5007728;28;20718;-55
2021/01/17 02:20:33;;;;;;;32.15;29.00;;;29.10;83.20;;;;;;4969659;28;20256;-54
2021/01/17 02:23:09;;;;;;;31.73;28.42;;;29.20;82.70;;;;;;4969492;28;20237;-56
2021/01/17 02:25:40;;;;;;;29.33;26.63;;;29.20;82.10;;;;;;4966075;28;20240;-54
2021/01/17 02:28:12;;;;;;;28.88;26.02;;;29.30;81.90;;;;;;4967777;28;20297;-57
2021/01/17 02:30:45;;;;;;;28.60;25.70;;;29.30;81.80;;;;;;4931338;28;20759;-57
2021/01/17 02:33:17;;;;;;;28.17;25.52;;;29.40;81.40;;;;;;4923648;28;20722;-57
2021/01/17 02:35:48;;;;;;;26.67;24.13;;;29.50;81.40;;;;;;4887422;28;20242;-57
2021/01/17 02:38:37;;;;;;;25.95;23.65;;;29.50;80.70;;;;;;4885020;28;20698;-57
2021/01/17 02:41:13;;;;;;;24.85;22.77;;;29.70;79.90;;;;;;4891106;28;20243;-56
2021/01/17 02:43:44;;;;;;;24.50;22.15;;;29.70;80.00;;;;;;4923830;29;21185;-54
2021/01/17 02:46:14;;;;;;;24.08;22.08;;;29.80;79.90;;;;;;4926985;29;20234;-57
2021/01/17 02:48:45;;;;;;;24.02;22.02;;;29.90;79.90;;;;;;4925274;29;21061;-56
2021/01/17 02:51:16;;;;;;;22.13;20.33;;;29.90;79.70;;;;;;4921628;29;20234;-57
2021/01/17 02:53:47;;;;;;;23.73;21.42;;;30.00;79.40;;;;;;4921893;29;20230;-56
2021/01/17 02:56:20;;;;;;;22.83;20.98;;;30.10;79.00;;;;;;4919610;29;20750;-57
2021/01/17 02:58:51;;;;;;;23.00;20.75;;;30.10;78.40;;;;;;4927387;29;20248;-55
2021/01/17 03:01:23;;;;;;;22.80;20.92;;;30.20;78.40;;;;;;4925614;29;20260;-58
2021/01/17 03:03:53;;;;;;;22.23;20.40;;;30.30;78.10;;;;;;4909623;29;20242;-57
2021/01/17 03:06:26;;;;;;;20.75;19.05;;;30.40;77.90;;;;;;4859209;29;20240;-57
2021/01/17 03:08:57;;;;;;;20.92;19.20;;;30.40;77.40;;;;;;4918082;29;20312;-57
2021/01/17 03:11:29;;;;;;;21.67;19.75;;;30.50;77.20;;;;;;4926235;29;20729;-50
2021/01/17 03:13:59;;;;;;;23.45;21.52;;;30.60;76.70;;;;;;4926253;29;20233;-50
2021/01/17 03:16:30;;;;;;;24.83;22.67;;;30.70;76.50;;;;;;4926182;29;20637;-51
2021/01/17 03:19:00;;;;;;;23.77;21.77;;;30.70;76.00;;;;;;4930648;29;20233;-50
2021/01/17 03:21:31;;;;;;;22.02;20.25;;;30.90;75.80;;;;;;4958987;28;20256;-50
2021/01/17 03:24:01;;;;;;;22.25;20.52;;;30.90;74.40;;;;;;4957356;28;20252;-53
2021/01/17 03:26:33;;;;;;;21.00;19.27;;;31.00;73.50;;;;;;4967181;28;20705;-52
2021/01/17 03:29:03;;;;;;;19.13;17.52;;;31.00;73.40;;;;;;4968453;28;20348;-55
2021/01/17 03:31:34;;;;;;;20.25;18.23;;;31.10;72.90;;;;;;5006981;28;20313;-50
2021/01/17 03:34:05;;;;;;;20.70;18.60;;;31.20;71.80;;;;;;5016083;28;20286;-55
2021/01/17 03:36:35;;;;;;;19.33;17.63;;;31.30;70.80;;;;;;4967817;28;20323;-55
2021/01/17 03:39:06;;;;;;;18.70;17.10;;;31.40;70.50;;;;;;4967495;28;20328;-51
2021/01/17 03:41:38;;;;;;;17.65;16.23;;;31.40;70.30;;;;;;4965828;28;20232;-51
2021/01/17 03:44:13;;;;;;;17.42;15.93;;;31.40;69.70;;;;;;4961747;28;20239;-52
2021/01/17 03:46:43;;;;;;;18.60;17.00;;;31.50;69.50;;;;;;4966089;28;20248;-54
2021/01/17 03:49:14;;;;;;;18.80;17.17;;;31.60;69.20;;;;;;4966391;28;20635;-51
2021/01/17 03:51:45;;;;;;;18.70;16.92;;;31.70;69.10;;;;;;4961686;28;20265;-55
2021/01/17 03:54:15;;;;;;;17.90;16.40;;;31.70;68.30;;;;;;4982210;28;20224;-51
2021/01/17 03:56:48;;;;;;;18.05;16.55;;;31.80;67.80;;;;;;4954466;28;20237;-54
2021/01/17 03:59:18;;;;;;;17.52;16.13;;;31.90;67.40;;;;;;4976419;28;20225;-53
2021/01/17 04:01:49;;;;;;;18.23;16.77;;;32.00;67.00;;;;;;4964770;28;20312;-56
2021/01/17 04:04:19;;;;;;;19.00;17.27;;;32.10;66.00;;;;;;4960587;28;20316;-56
2021/01/17 04:06:50;;;;;;;17.30;15.90;;;32.20;65.20;;;;;;4963248;28;20271;-53
2021/01/17 04:09:20;;;;;;;20.17;18.52;;;32.20;65.50;;;;;;4963625;28;20697;-53
2021/01/17 04:11:51;;;;;;;19.23;17.77;;;32.40;64.90;;;;;;4965759;28;20322;-53
2021/01/17 04:14:22;;;;;;;17.55;16.05;;;32.50;64.40;;;;;;4961600;28;20229;-55
2021/01/17 04:16:53;;;;;;;19.65;17.85;;;32.50;64.40;;;;;;4965070;28;20290;-56
2021/01/17 04:19:24;;;;;;;18.70;17.20;;;32.70;63.20;;;;;;4959810;28;20233;-56
2021/01/17 04:21:55;;;;;;;19.55;17.73;;;32.70;62.60;;;;;;4966136;28;20260;-53
2021/01/17 04:24:25;;;;;;;18.73;17.13;;;32.90;62.80;;;;;;4965558;28;20756;-51
2021/01/17 04:27:02;;;;;;;17.67;16.17;;;32.90;62.60;;;;;;4964060;28;20653;-55
2021/01/17 04:29:32;;;;;;;17.10;15.70;;;33.10;62.20;;;;;;4974279;28;20232;-55
2021/01/17 04:32:03;;;;;;;18.15;16.63;;;33.10;61.20;;;;;;4965120;28;20287;-54
2021/01/17 04:34:35;;;;;;;17.38;15.77;;;33.20;60.10;;;;;;4960812;28;20307;-55
2021/01/17 04:37:06;;;;;;;17.73;16.25;;;33.30;59.90;;;;;;4960859;28;20232;-53
2021/01/17 04:39:37;;;;;;;19.15;17.33;;;33.50;59.90;;;;;;4961772;28;20341;-51
2021/01/17 04:42:11;;;;;;;20.58;18.60;;;33.50;59.50;;;;;;4964716;28;20237;-50
2021/01/17 04:44:41;;;;;;;21.15;19.17;;;33.60;58.20;;;;;;4960728;28;20239;-54
2021/01/17 04:47:12;;;;;;;22.23;20.42;;;33.70;57.70;;;;;;4921167;28;20339;-57
2021/01/17 04:49:43;;;;;;;20.42;18.85;;;33.80;56.80;;;;;;4922289;28;20277;-54
2021/01/17 04:52:14;;;;;;;19.50;17.70;;;33.80;57.00;;;;;;4925628;28;20241;-56
2021/01/17 04:54:45;;;;;;;21.00;19.08;;;33.90;56.90;;;;;;4923673;28;20273;-51
2021/01/17 04:57:28;;;;;;;19.23;17.42;;;33.90;56.30;;;;;;4925357;28;20234;-54
2021/01/17 05:00:06;;;;;;;18.40;16.92;;;34.00;56.30;;;;;;4961380;28;20224;-52
2021/01/17 05:02:41;;;;;;;19.33;17.73;;;34.00;56.80;;;;;;4969880;28;20232;-50
2021/01/17 05:05:15;;;;;;;19.75;17.95;;;34.10;56.30;;;;;;4929227;29;20233;-55
2021/01/17 05:08:06;;;;;;;19.83;18.23;;;34.20;56.00;;;;;;4932735;29;21954;-53
2021/01/17 05:10:37;;;;;;;21.50;19.48;;;34.20;55.40;;;;;;4920534;28;20242;-51
2021/01/17 05:13:11;;;;;;;21.45;19.60;;;34.20;55.40;;;;;;4991814;28;20232;-51
2021/01/17 05:15:42;;;;;;;22.45;20.52;;;34.20;54.90;;;;;;4987795;28;20239;-52
2021/01/17 05:18:12;;;;;;;22.50;20.75;;;34.20;53.20;;;;;;4974845;28;20245;-50
2021/01/17 05:20:43;;;;;;;21.70;19.83;;;34.20;53.20;;;;;;4943110;28;20241;-53
2021/01/17 05:23:14;;;;;;;22.55;20.77;;;34.30;53.90;;;;;;4969795;28;20305;-56
2021/01/17 05:25:44;;;;;;;21.08;19.38;;;34.30;52.90;;;;;;4993524;28;20295;-54
2021/01/17 05:28:16;;;;;;;38.42;34.78;;;34.30;52.70;;;;;;4946668;28;20595;-53
2021/01/17 05:30:47;;;;;;;32.15;29.27;;;34.30;58.30;;;;;;4959743;28;20229;-51
2021/01/17 05:33:17;;;;;;;33.70;30.45;;;34.20;59.00;;;;;;4991803;28;20320;-51
2021/01/17 05:35:48;;;;;;;30.52;27.98;;;34.20;59.30;;;;;;4980650;28;20225;-53
2021/01/17 05:38:18;;;;;;;30.92;28.13;;;34.10;59.80;;;;;;4983355;28;20232;-51
2021/01/17 05:40:49;;;;;;;33.35;30.33;;;34.00;60.00;;;;;;4976697;28;20319;-52
2021/01/17 05:43:21;;;;;;;36.35;33.05;;;33.90;60.20;;;;;;4965290;28;20228;-55
2021/01/17 05:45:51;;;;;;;32.03;29.30;;;33.70;60.70;;;;;;4971193;28;20289;-53
2021/01/17 05:48:22;;;;;;;33.05;30.05;;;33.60;60.90;;;;;;4964898;28;20229;-55
2021/01/17 05:50:52;;;;;;;33.28;30.10;;;33.50;60.20;;;;;;4963585;28;20252;-54
2021/01/17 05:53:25;;;;;;;31.52;28.85;;;33.50;60.70;;;;;;4967825;28;20232;-56
2021/01/17 05:55:55;;;;;;;35.08;31.95;;;33.40;61.70;;;;;;4968197;28;20311;-57
2021/01/17 05:58:28;;;;;;;32.55;29.70;;;33.40;62.40;;;;;;4965185;28;20774;-57
2021/01/17 06:01:00;;;;;;;39.70;36.10;;;33.30;62.50;;;;;;4967757;28;20268;-56
2021/01/17 06:03:32;;;;;;;37.30;34.00;;;33.40;63.10;;;;;;4966779;28;20236;-57
2021/01/17 06:06:03;;;;;;;37.63;34.13;;;33.40;63.20;;;;;;4961254;28;20787;-54
2021/01/17 06:08:34;;;;;;;39.85;36.15;;;33.40;63.40;;;;;;4965944;28;20260;-55
2021/01/17 06:11:10;;;;;;;37.42;34.25;;;33.40;62.90;;;;;;4967498;28;20326;-52
2021/01/17 06:13:42;;;;;;;35.88;32.85;;;33.40;62.40;;;;;;4965005;28;20663;-55
2021/01/17 06:16:25;;;;;;;34.25;31.35;;;33.40;62.20;;;;;;4957960;28;20233;-53
2021/01/17 06:18:57;;;;;;;34.50;31.27;;;33.40;61.90;;;;;;4966835;28;20228;-55
2021/01/17 06:21:27;;;;;;;32.05;29.33;;;33.30;62.10;;;;;;4923959;28;20246;-55
2021/01/17 06:23:59;;;;;;;33.33;30.50;;;33.30;62.30;;;;;;4926657;29;20242;-53
2021/01/17 06:26:30;;;;;;;30.75;28.13;;;33.20;62.10;;;;;;4930159;28;20232;-53
2021/01/17 06:29:03;;;;;;;30.77;28.08;;;33.10;61.90;;;;;;4958071;28;20233;-52
2021/01/17 06:31:34;;;;;;;30.13;27.52;;;33.10;62.40;;;;;;4964642;28;20232;-52
2021/01/17 06:34:08;;;;;;;28.88;26.25;;;33.00;62.40;;;;;;4963351;28;20266;-51
2021/01/17 06:36:39;;;;;;;29.63;27.13;;;33.00;62.10;;;;;;4978994;28;20286;-53
2021/01/17 06:39:21;;;;;;;29.88;27.45;;;33.00;62.40;;;;;;4959264;28;20243;-54
2021/01/17 06:41:54;;;;;;;27.48;24.98;;;32.90;62.60;;;;;;4955138;28;20233;-55
2021/01/17 06:44:29;;;;;;;29.13;26.55;;;32.90;62.60;;;;;;4959526;28;20593;-56
2021/01/17 06:47:00;;;;;;;27.08;24.58;;;32.90;61.80;;;;;;4958901;28;20278;-56
2021/01/17 06:49:31;;;;;;;27.40;25.05;;;32.90;62.00;;;;;;4963367;28;20234;-54
2021/01/17 06:52:05;;;;;;;27.27;25.00;;;32.90;61.70;;;;;;4966260;28;20668;-55
2021/01/17 06:54:35;;;;;;;29.33;26.92;;;33.00;61.90;;;;;;4961659;28;20243;-54
2021/01/17 06:57:06;;;;;;;30.00;27.40;;;33.10;61.70;;;;;;4958940;28;20261;-56
2021/01/17 06:59:39;;;;;;;28.00;25.60;;;33.10;61.20;;;;;;4955878;28;20240;-55
2021/01/17 07:02:40;;;;;;;32.92;30.23;;;33.10;61.40;;;;;;4966168;28;20256;-50
2021/01/17 07:05:47;;;;;;;28.73;26.02;;;33.20;60.30;;;;;;4966306;28;21190;-52
2021/01/17 07:08:39;;;;;;;30.20;27.23;;;33.20;60.70;;;;;;5005879;28;20821;-55
2021/01/17 07:11:50;;;;;;;26.63;24.40;;;33.30;60.70;;;;;;5005274;28;20270;-55
2021/01/17 07:14:21;;;;;;;30.30;27.67;;;33.40;61.00;;;;;;4932650;28;20232;-56
2021/01/17 07:16:53;;;;;;;31.83;29.02;;;33.40;61.00;;;;;;4975717;28;20233;-52
2021/01/17 07:19:28;;;;;;;34.28;31.17;;;33.40;60.80;;;;;;4960701;28;21721;-57
2021/01/17 07:21:58;;;;;;;37.85;34.60;;;33.40;60.30;;;;;;4922915;28;20237;-57
2021/01/17 07:24:29;;;;;;;31.52;29.02;;;33.40;59.80;;;;;;4873921;28;20883;-56
2021/01/17 07:27:16;;;;;;;27.20;25.02;;;33.40;59.90;;;;;;4871783;29;20315;-52
2021/01/17 07:29:46;;;;;;;26.73;24.60;;;33.40;60.20;;;;;;4874080;29;20256;-53
2021/01/17 07:32:36;;;;;;;27.42;25.10;;;33.50;60.10;;;;;;4843456;29;20248;-55
2021/01/17 07:35:08;;;;;;;25.88;23.48;;;33.50;60.10;;;;;;4841722;29;20257;-54
2021/01/17 07:37:42;;;;;;;25.50;23.38;;;33.50;60.20;;;;;;4836110;29;20343;-54
2021/01/17 07:40:13;;;;;;;27.85;25.35;;;33.50;59.90;;;;;;4835790;29;20260;-55
2021/01/17 07:42:43;;;;;;;30.85;28.17;;;33.60;59.80;;;;;;4839188;29;20241;-51
2021/01/17 07:45:16;;;;;;;27.90;25.67;;;33.50;59.60;;;;;;4808459;29;20321;-54
2021/01/17 07:47:48;;;;;;;31.42;28.77;;;33.50;60.00;;;;;;4816731;29;20242;-51
2021/01/17 07:50:19;;;;;;;32.05;29.30;;;33.50;59.80;;;;;;4816378;29;20257;-53
2021/01/17 07:52:54;;;;;;;28.25;25.95;;;33.50;59.80;;;;;;4843973;29;20239;-56
2021/01/17 07:55:24;;;;;;;31.98;29.17;;;33.50;60.00;;;;;;4899820;29;20316;-54
2021/01/17 07:57:55;;;;;;;29.48;27.20;;;33.40;59.40;;;;;;4945996;28;20823;-56
2021/01/17 08:00:27;;;;;;;28.50;26.10;;;33.40;59.80;;;;;;4949938;28;20269;-56
2021/01/17 08:03:00;;;;;;;28.92;26.52;;;33.40;59.70;;;;;;4953774;28;20240;-57
2021/01/17 08:05:51;;;;;;;27.30;25.00;;;33.40;60.00;;;;;;4967540;28;20225;-57
2021/01/17 08:08:50;;;;;;;26.65;24.40;;;33.30;60.20;;;;;;4945773;28;20674;-55
2021/01/17 08:11:49;;;;;;;30.58;27.80;;;33.40;59.80;;;;;;4964516;28;20234;-52
2021/01/17 08:14:29;;;;;;;29.13;26.42;;;33.40;60.10;;;;;;4986849;28;20257;-56
2021/01/17 08:17:10;;;;;;;30.42;27.77;;;33.40;60.10;;;;;;4964716;28;20308;-53
2021/01/17 08:19:46;;;;;;;29.15;26.65;;;33.40;60.10;;;;;;4959934;28;20291;-52
2021/01/17 08:22:46;;;;;;;27.42;25.17;;;33.40;60.20;;;;;;4966036;28;20270;-51
2021/01/17 08:25:17;;;;;;;24.10;22.00;;;33.40;60.10;;;;;;4967769;28;20257;-51
2021/01/17 08:27:48;;;;;;;26.73;24.42;;;33.40;60.30;;;;;;4966001;28;20238;-50
2021/01/17 08:30:20;;;;;;;24.35;22.45;;;33.40;60.20;;;;;;4958319;28;20697;-52
2021/01/17 08:32:51;;;;;;;27.33;24.88;;;33.50;60.20;;;;;;4958967;28;20240;-53
2021/01/17 08:35:36;;;;;;;27.70;25.20;;;33.50;60.20;;;;;;4960345;28;20701;-51
2021/01/17 08:38:18;;;;;;;25.50;23.50;;;33.60;59.70;;;;;;4968730;28;20228;-51
2021/01/17 08:40:53;;;;;;;27.02;24.42;;;33.60;59.60;;;;;;4972790;28;20277;-50
2021/01/17 08:43:40;;;;;;;28.55;26.05;;;33.70;59.60;;;;;;4970967;28;20230;-51
2021/01/17 08:46:11;;;;;;;28.48;26.23;;;33.70;59.30;;;;;;4975946;28;20232;-56
2021/01/17 08:48:42;;;;;;;29.30;26.77;;;33.70;59.70;;;;;;4960565;28;20240;-51
2021/01/17 08:51:23;;;;;;;25.95;23.65;;;33.70;59.70;;;;;;4877843;29;20247;-53
2021/01/17 08:53:53;;;;;;;26.23;24.15;;;33.70;59.70;;;;;;4883591;29;20225;-56
2021/01/17 08:56:25;;;;;;;27.38;24.85;;;33.80;59.70;;;;;;4871738;29;20238;-56
2021/01/17 08:58:55;;;;;;;28.10;25.50;;;33.80;59.50;;;;;;4869590;28;20239;-55
2021/01/17 09:01:26;;;;;;;32.22;29.35;;;33.90;59.80;;;;;;4906850;29;20258;-53
2021/01/17 09:03:58;;;;;;;31.05;28.15;;;33.90;59.60;;;;;;4874612;29;20251;-53
2021/01/17 09:06:36;;;;;;;32.55;29.50;;;33.90;59.80;;;;;;4866168;29;20323;-52
2021/01/17 09:09:10;;;;;;;30.33;27.73;;;33.90;59.80;;;;;;4875003;28;20236;-50
2021/01/17 09:11:41;;;;;;;28.58;26.23;;;33.90;59.80;;;;;;4899397;29;20750;-53
2021/01/17 09:14:26;;;;;;;28.00;25.70;;;33.90;59.80;;;;;;4874143;29;20242;-56
2021/01/17 09:17:00;;;;;;;31.08;28.17;;;33.90;59.60;;;;;;4900307;29;20227;-50
2021/01/17 09:19:32;;;;;;;29.98;27.48;;;33.90;59.10;;;;;;4906093;28;20239;-50
2021/01/17 09:22:05;;;;;;;32.58;29.80;;;33.90;59.10;;;;;;4913553;28;20231;-51
2021/01/17 09:24:36;;;;;;;24.92;22.73;;;33.90;59.10;;;;;;4962668;28;20232;-50
2021/01/17 09:27:09;;;;;;;23.48;21.65;;;33.80;59.40;;;;;;4960857;28;20235;-56
2021/01/17 09:29:40;;;;;;;25.42;23.48;;;33.90;59.80;;;;;;4970696;28;20235;-55
2021/01/17 09:32:11;;;;;;;29.88;27.10;;;33.90;60.00;;;;;;4993159;28;20317;-55
2021/01/17 09:34:43;;;;;;;27.90;25.55;;;33.90;59.90;;;;;;4978255;28;20241;-56
2021/01/17 09:37:15;;;;;;;26.50;24.27;;;33.90;59.90;;;;;;4969002;28;20316;-52
2021/01/17 09:39:46;;;;;;;26.40;23.98;;;33.90;60.00;;;;;;4995259;28;20578;-53
2021/01/17 09:42:18;;;;;;;27.17;24.98;;;33.90;60.10;;;;;;4962463;28;20228;-55
2021/01/17 09:44:53;;;;;;;27.92;25.63;;;33.80;60.10;;;;;;4963547;28;20256;-51
2021/01/17 09:47:24;;;;;;;30.08;27.67;;;33.80;60.20;;;;;;4963180;28;20228;-54
2021/01/17 09:49:54;;;;;;;28.88;26.35;;;33.70;60.00;;;;;;4960521;28;20347;-54
2021/01/17 09:52:27;;;;;;;29.23;26.80;;;33.70;60.10;;;;;;4960104;28;20228;-57
2021/01/17 09:54:57;;;;;;;27.80;25.52;;;33.60;60.20;;;;;;5000343;28;20670;-56
2021/01/17 09:57:31;;;;;;;28.48;26.05;;;33.60;60.40;;;;;;4968381;28;20232;-56
2021/01/17 10:00:02;;;;;;;30.90;28.20;;;33.50;60.50;;;;;;4962779;28;20229;-55
2021/01/17 10:02:34;;;;;;;26.85;24.50;;;33.40;60.60;;;;;;4960703;28;20701;-56
2021/01/17 10:05:06;;;;;;;29.92;27.33;;;33.40;60.70;;;;;;4976010;28;20240;-55
2021/01/17 10:07:40;;;;;;;29.23;26.52;;;33.30;60.90;;;;;;4960493;28;20692;-54
2021/01/17 10:10:12;;;;;;;29.73;27.30;;;33.30;61.00;;;;;;4962294;28;20225;-53
2021/01/17 10:12:47;;;;;;;30.02;27.25;;;33.30;61.20;;;;;;4963807;28;20699;-56
2021/01/17 10:15:18;;;;;;;28.60;26.30;;;33.20;61.20;;;;;;4950013;28;20262;-56
2021/01/17 10:17:49;;;;;;;27.65;24.83;;;33.20;61.30;;;;;;4909964;28;20231;-57
2021/01/17 10:20:25;;;;;;;25.30;23.30;;;33.20;61.40;;;;;;4923058;28;20327;-54
2021/01/17 10:23:01;;;;;;;30.17;27.60;;;33.10;61.70;;;;;;4924204;28;20709;-52
2021/01/17 10:25:31;;;;;;;28.55;26.30;;;33.10;61.80;;;;;;4914028;28;20229;-55
2021/01/17 10:28:02;;;;;;;29.55;26.90;;;33.20;61.70;;;;;;4908785;28;20246;-53
2021/01/17 10:30:32;;;;;;;30.67;28.17;;;33.10;61.60;;;;;;4909706;28;20687;-52
2021/01/17 10:33:04;;;;;;;28.23;25.98;;;33.10;61.50;;;;;;4925741;28;20226;-52
2021/01/17 10:35:35;;;;;;;27.67;25.38;;;33.20;61.50;;;;;;4946677;28;20703;-52
2021/01/17 10:38:07;;;;;;;28.15;25.80;;;33.20;61.50;;;;;;4918893;28;20272;-51
2021/01/17 10:40:38;;;;;;;31.48;28.88;;;33.20;61.40;;;;;;4924912;28;20714;-52
2021/01/17 10:43:09;;;;;;;30.45;27.70;;;33.20;61.10;;;;;;4937000;28;20597;-53
2021/01/17 10:45:40;;;;;;;29.65;27.23;;;33.30;60.70;;;;;;4921084;28;20268;-55
2021/01/17 10:48:13;;;;;;;28.35;25.85;;;33.20;60.50;;;;;;4966426;28;20241;-51
2021/01/17 10:50:52;;;;;;;25.70;23.55;;;33.10;60.40;;;;;;4958619;28;20248;-52
2021/01/17 10:53:25;;;;;;;25.30;23.20;;;33.10;60.50;;;;;;4961090;28;20229;-52
2021/01/17 10:55:56;;;;;;;26.60;24.35;;;33.10;60.70;;;;;;4965646;28;20587;-50
2021/01/17 10:58:27;;;;;;;25.38;23.30;;;33.00;60.70;;;;;;4957813;28;20697;-51
2021/01/17 11:00:57;;;;;;;20.98;19.25;;;33.00;60.90;;;;;;4962828;28;20235;-50
2021/01/17 11:03:32;;;;;;;24.13;22.02;;;32.90;61.00;;;;;;4962920;28;20248;-51
2021/01/17 11:06:08;;;;;;;27.15;24.85;;;32.80;61.30;;;;;;4962268;28;20232;-53
2021/01/17 11:08:43;;;;;;;24.65;22.45;;;32.80;61.60;;;;;;4962474;28;20684;-53
2021/01/17 11:11:14;;;;;;;28.20;25.73;;;32.70;61.70;;;;;;4964952;28;20239;-54
2021/01/17 11:13:45;;;;;;;29.90;27.15;;;32.60;61.70;;;;;;4950586;28;20240;-50
2021/01/17 11:16:15;;;;;;;31.77;28.90;;;32.60;61.90;;;;;;4958721;28;20677;-53
2021/01/17 11:18:49;;;;;;;28.75;26.10;;;32.50;62.10;;;;;;4921081;29;20234;-52
2021/01/17 11:21:19;;;;;;;29.13;26.52;;;32.50;62.30;;;;;;4872555;29;20248;-56
2021/01/17 11:23:53;;;;;;;26.15;23.65;;;32.40;62.40;;;;;;4931671;29;20229;-50
2021/01/17 11:26:24;;;;;;;26.38;24.02;;;32.40;62.60;;;;;;4931781;29;20226;-54
2021/01/17 11:28:55;;;;;;;27.25;24.90;;;32.30;62.60;;;;;;4930478;29;20237;-54
2021/01/17 11:31:25;;;;;;;29.90;27.05;;;32.30;62.80;;;;;;4930966;29;20313;-51
2021/01/17 11:33:56;;;;;;;29.58;26.70;;;32.30;63.00;;;;;;4931012;29;20237;-52
2021/01/17 11:36:29;;;;;;;31.60;28.80;;;32.20;63.10;;;;;;4931353;29;20265;-54
2021/01/17 11:39:01;;;;;;;27.58;25.05;;;32.10;63.60;;;;;;4931147;29;20237;-55
2021/01/17 11:41:35;;;;;;;24.63;22.58;;;32.10;64.70;;;;;;4930753;29;20241;-56
2021/01/17 11:44:10;;;;;;;27.50;25.02;;;32.10;64.10;;;;;;4936304;28;20245;-57
2021/01/17 11:46:41;;;;;;;28.65;26.15;;;32.00;64.20;;;;;;4997596;28;20340;-56
2021/01/17 11:49:12;;;;;;;28.00;25.40;;;32.00;64.10;;;;;;5002276;28;21966;-53
2021/01/17 11:51:42;;;;;;;26.50;24.23;;;32.00;64.40;;;;;;4999927;28;20630;-57
2021/01/17 11:54:14;;;;;;;26.77;24.38;;;31.90;64.30;;;;;;4988224;28;20236;-53
2021/01/17 11:56:45;;;;;;;29.45;26.83;;;31.90;64.40;;;;;;5000206;28;20564;-52
2021/01/17 11:59:28;;;;;;;27.52;25.02;;;31.90;64.60;;;;;;4989341;28;20607;-54
2021/01/17 12:01:58;;;;;;;27.25;24.77;;;31.80;64.70;;;;;;4960379;28;20354;-57
2021/01/17 12:04:29;;;;;;;28.55;26.10;;;31.80;64.60;;;;;;4996948;28;20241;-56
2021/01/17 12:07:06;;;;;;;27.63;25.23;;;31.80;64.70;;;;;;5002106;28;20757;-55
2021/01/17 12:09:38;;;;;;;30.42;27.60;;;31.80;65.00;;;;;;4964448;28;20290;-55
2021/01/17 12:12:17;;;;;;;27.75;25.35;;;31.70;64.90;;;;;;4962935;28;20604;-53
2021/01/17 12:14:48;;;;;;;25.88;23.50;;;31.70;65.30;;;;;;4960179;28;20281;-55
2021/01/17 12:17:19;;;;;;;27.20;24.77;;;31.60;65.00;;;;;;4960696;28;20239;-52
2021/01/17 12:19:50;;;;;;;29.00;26.23;;;31.60;65.10;;;;;;4960008;28;20252;-54
2021/01/17 12:22:26;;;;;;;27.50;25.00;;;31.60;65.30;;;;;;4957376;28;20264;-54
2021/01/17 12:24:57;;;;;;;27.33;24.98;;;31.50;65.10;;;;;;4970366;28;20283;-50
2021/01/17 12:27:28;;;;;;;25.67;23.38;;;31.50;65.20;;;;;;4989260;28;20233;-51
2021/01/17 12:29:58;;;;;;;26.33;24.08;;;31.50;65.30;;;;;;4958181;28;20316;-51
2021/01/17 12:32:29;;;;;;;28.75;26.15;;;31.40;65.50;;;;;;4963682;28;20763;-52
2021/01/17 12:34:59;;;;;;;28.58;26.13;;;31.40;65.50;;;;;;4958238;28;20244;-54
2021/01/17 12:37:30;;;;;;;29.15;26.30;;;31.30;65.50;;;;;;4966429;28;20608;-53
2021/01/17 12:40:03;;;;;;;27.23;24.83;;;31.30;65.60;;;;;;4963693;28;20400;-51
2021/01/17 12:42:35;;;;;;;24.77;22.77;;;31.30;65.70;;;;;;4959827;28;20649;-52
2021/01/17 12:45:08;;;;;;;27.75;25.08;;;31.20;66.60;;;;;;4958749;28;20236;-51
2021/01/17 12:47:40;;;;;;;29.00;26.55;;;31.20;65.80;;;;;;4964820;28;20236;-50
2021/01/17 12:50:12;;;;;;;27.23;24.75;;;31.10;65.90;;;;;;4956796;28;20287;-53
2021/01/17 12:52:44;;;;;;;26.48;23.98;;;31.10;66.00;;;;;;4961508;28;20240;-53
2021/01/17 12:55:16;;;;;;;24.83;22.65;;;31.00;66.10;;;;;;4965980;28;20307;-56
2021/01/17 12:57:46;;;;;;;27.83;25.48;;;31.00;66.30;;;;;;4967514;28;20277;-52